Time;durP1;ratioP1;P1;durP2;ratioP2;P2;SDS_P1;SDS_P2;PMS_P1;PMS_P2;Temp;Humidity;BMP_temperature;BMP_pressure;BME280_temperature;BME280_humidity;BME280_pressure;Samples;Min_cycle;Max_cycle;Signal;HPM_P1;HPM_P2
2022/05/20 00:00:06;;;;;;;9.27;4.07;;;18.30;99.90;;;18.18;100.00;97747.94;5007563;28;20053;-47
2022/05/20 00:02:33;;;;;;;5.53;3.70;;;18.30;99.90;;;18.15;100.00;97742.78;5005254;28;20048;-47
2022/05/20 00:04:59;;;;;;;9.05;3.85;;;18.30;99.90;;;18.17;100.00;97751.56;5013375;28;20203;-44
2022/05/20 00:07:26;;;;;;;8.50;3.88;;;18.30;99.90;;;18.15;100.00;97742.78;5018181;28;20044;-47
2022/05/20 00:09:52;;;;;;;4.38;3.80;;;18.30;99.90;;;18.18;100.00;97742.59;5016372;28;20648;-47
2022/05/20 00:12:19;;;;;;;8.55;3.85;;;18.30;99.90;;;18.19;100.00;97732.78;5014669;28;20037;-48
2022/05/20 00:14:45;;;;;;;6.10;3.95;;;18.30;99.90;;;18.17;100.00;97740.03;5013898;28;20026;-48
2022/05/20 00:17:11;;;;;;;7.05;4.13;;;18.30;99.90;;;18.16;100.00;97735.63;5013643;28;20087;-46
2022/05/20 00:19:37;;;;;;;6.07;3.78;;;18.30;99.90;;;18.17;100.00;97734.69;5007588;28;20028;-48
2022/05/20 00:22:05;;;;;;;4.88;3.42;;;18.30;99.90;;;18.13;100.00;97728.69;5018063;28;20401;-46
2022/05/20 00:24:31;;;;;;;4.75;3.40;;;18.30;99.90;;;17.95;100.00;97697.81;5015754;28;20446;-46
2022/05/20 00:26:56;;;;;;;8.10;3.83;;;18.20;99.90;;;18.02;100.00;97720.50;5013681;28;20037;-46
2022/05/20 00:29:23;;;;;;;6.18;3.70;;;18.20;99.90;;;18.03;100.00;97725.72;5013704;28;20033;-49
2022/05/20 00:31:48;;;;;;;5.28;3.40;;;18.10;99.90;;;17.92;100.00;97715.69;5011884;28;20355;-49
2022/05/20 00:34:14;;;;;;;5.38;3.42;;;18.10;99.90;;;17.97;100.00;97727.94;5010688;28;20118;-47
2022/05/20 00:36:40;;;;;;;4.93;3.10;;;18.10;99.90;;;17.94;100.00;97734.28;4992405;28;20104;-47
2022/05/20 00:39:05;;;;;;;4.13;3.05;;;18.00;99.90;;;17.90;100.00;97728.28;5013690;28;20030;-44
2022/05/20 00:41:31;;;;;;;5.22;3.40;;;18.00;99.90;;;17.88;100.00;97727.53;5014863;28;20041;-44
2022/05/20 00:43:58;;;;;;;5.40;3.85;;;17.90;99.90;;;17.86;100.00;97731.25;5011401;28;21000;-45
2022/05/20 00:46:26;;;;;;;8.75;3.60;;;17.90;99.90;;;17.83;100.00;97734.91;5007944;28;20481;-48
2022/05/20 00:49:15;;;;;;;5.03;3.47;;;17.90;99.90;;;17.76;100.00;97728.22;5014793;28;20124;-47
2022/05/20 00:51:48;;;;;;;7.85;3.70;;;17.90;99.90;;;17.73;100.00;97723.09;4996830;28;20029;-46
2022/05/20 00:54:23;;;;;;;7.25;4.13;;;17.80;99.90;;;17.68;100.00;97711.84;5014137;28;20029;-48
2022/05/20 00:57:01;;;;;;;4.45;3.58;;;17.80;99.90;;;17.68;100.00;97707.38;4996684;28;20029;-46
2022/05/20 00:59:31;;;;;;;6.40;3.65;;;17.80;99.90;;;17.68;100.00;97712.72;5014508;28;20187;-47
2022/05/20 01:02:06;;;;;;;5.57;3.28;;;17.80;99.90;;;17.70;100.00;97721.47;5004415;28;20055;-48
2022/05/20 01:04:34;;;;;;;7.88;3.40;;;17.80;99.90;;;17.68;100.00;97718.03;4993086;28;20029;-45
2022/05/20 01:06:59;;;;;;;5.20;3.60;;;17.80;99.90;;;17.66;100.00;97708.44;5017756;28;20116;-47
2022/05/20 01:09:25;;;;;;;6.63;3.80;;;17.70;99.90;;;17.64;100.00;97713.84;5016198;28;20060;-48
2022/05/20 01:11:52;;;;;;;4.57;3.42;;;17.70;99.90;;;17.61;100.00;97705.19;5015762;28;20051;-46
2022/05/20 01:14:24;;;;;;;6.15;3.40;;;17.70;99.90;;;17.55;100.00;97714.41;5013033;28;20489;-48
2022/05/20 01:16:50;;;;;;;4.95;3.75;;;17.70;99.90;;;17.51;100.00;97711.03;4995272;28;20044;-44
2022/05/20 01:19:37;;;;;;;4.22;3.25;;;17.60;99.90;;;17.49;100.00;97712.94;5015077;28;20026;-47
2022/05/20 01:22:06;;;;;;;5.53;3.78;;;17.60;99.90;;;17.47;100.00;97716.66;5003347;28;20036;-48
2022/05/20 01:24:32;;;;;;;6.10;3.47;;;17.60;99.90;;;17.43;100.00;97717.81;5010951;28;20398;-46
2022/05/20 01:26:57;;;;;;;5.65;3.50;;;17.50;99.90;;;17.42;100.00;97708.94;5012341;28;20077;-47
2022/05/20 01:29:25;;;;;;;8.18;3.83;;;17.50;99.90;;;17.40;100.00;97713.50;5012921;28;20034;-48
2022/05/20 01:31:51;;;;;;;4.18;3.55;;;17.50;99.90;;;17.39;100.00;97717.13;4993460;28;20112;-45
2022/05/20 01:34:16;;;;;;;5.30;3.85;;;17.50;99.90;;;17.40;100.00;97710.00;5006442;28;20029;-47
2022/05/20 01:36:42;;;;;;;6.05;3.83;;;17.50;99.90;;;17.43;100.00;97710.66;5007575;28;20113;-47
2022/05/20 01:39:08;;;;;;;5.85;3.67;;;17.50;99.90;;;17.43;100.00;97712.47;5013491;28;20488;-47
2022/05/20 01:42:17;;;;;;;4.43;3.53;;;17.50;99.90;;;17.41;100.00;97709.91;5030634;23;20032;-45
2022/05/20 01:45:02;;;;;;;5.43;3.45;;;17.50;99.90;;;17.42;100.00;97711.59;5009509;28;20056;-46
2022/05/20 01:47:39;;;;;;;7.47;3.40;;;17.50;99.90;;;17.35;100.00;97705.81;5009812;28;20021;-47
2022/05/20 01:50:27;;;;;;;5.97;3.63;;;17.40;99.90;;;17.32;100.00;97703.31;5012201;28;20068;-46
2022/05/20 01:53:07;;;;;;;5.05;4.30;;;17.40;99.90;;;17.31;100.00;97701.56;5014827;28;20139;-46
2022/05/20 01:55:50;;;;;;;7.70;3.92;;;17.40;99.90;;;17.34;100.00;97698.72;5027244;28;20030;-48
2022/05/20 01:58:36;;;;;;;8.90;4.43;;;17.40;99.90;;;17.39;100.00;97692.25;5015771;28;20037;-46
2022/05/20 02:01:07;;;;;;;4.70;4.13;;;17.50;99.90;;;17.47;100.00;97684.66;5013709;28;20100;-47
2022/05/20 02:03:41;;;;;;;5.35;4.22;;;17.50;99.90;;;17.51;100.00;97684.38;5006656;28;20051;-45
2022/05/20 02:06:20;;;;;;;7.63;3.85;;;17.60;99.90;;;17.53;100.00;97686.97;5014787;28;20119;-46
2022/05/20 02:09:25;;;;;;;5.55;3.38;;;17.60;99.90;;;17.54;100.00;97694.03;5013364;28;20706;-48
2022/05/20 02:11:54;;;;;;;6.57;3.90;;;17.60;99.90;;;17.52;100.00;97693.25;5012224;28;20563;-47
2022/05/20 02:14:35;;;;;;;5.90;4.07;;;17.60;99.90;;;17.55;100.00;97691.25;5009043;28;20099;-47
2022/05/20 02:17:31;;;;;;;6.97;4.13;;;17.60;99.90;;;17.53;100.00;97692.28;5009527;28;20342;-48
2022/05/20 02:20:05;;;;;;;4.88;4.00;;;17.60;99.90;;;17.48;100.00;97691.69;5014322;28;20033;-45
2022/05/20 02:22:38;;;;;;;6.85;4.10;;;17.60;99.90;;;17.41;100.00;97693.91;5008050;28;20041;-45
2022/05/20 02:25:07;;;;;;;6.43;4.18;;;17.50;99.90;;;17.35;100.00;97703.13;5011024;28;20029;-46
2022/05/20 02:27:41;;;;;;;4.13;3.60;;;17.50;99.90;;;17.32;100.00;97699.78;5007645;28;20490;-44
2022/05/20 02:30:12;;;;;;;7.50;3.97;;;17.40;99.90;;;17.27;100.00;97702.72;5014374;28;20500;-46
2022/05/20 02:32:46;;;;;;;5.47;3.83;;;17.40;99.90;;;17.21;100.00;97703.09;5003710;28;20510;-47
2022/05/20 02:35:12;;;;;;;7.63;4.00;;;17.30;99.90;;;17.17;100.00;97715.75;5013354;28;20501;-49
2022/05/20 02:37:40;;;;;;;4.18;3.75;;;17.30;99.90;;;17.12;100.00;97706.28;5002850;28;20410;-45
2022/05/20 02:40:09;;;;;;;7.80;4.13;;;17.20;99.90;;;17.08;100.00;97708.25;5012172;28;20454;-49
2022/05/20 02:42:35;;;;;;;5.95;4.70;;;17.20;99.90;;;17.04;100.00;97703.22;5009885;28;20116;-44
2022/05/20 02:45:02;;;;;;;5.60;4.20;;;17.20;99.90;;;16.96;100.00;97695.69;5010843;28;20511;-46
2022/05/20 02:47:31;;;;;;;5.10;3.72;;;17.10;99.90;;;16.96;100.00;97696.53;5013170;28;20037;-48
2022/05/20 02:50:09;;;;;;;4.75;4.05;;;17.10;99.90;;;17.02;100.00;97691.78;5012340;28;20099;-47
2022/05/20 02:52:35;;;;;;;7.32;4.45;;;17.10;99.90;;;17.06;100.00;97688.00;5011803;28;20493;-49
2022/05/20 02:55:01;;;;;;;7.45;4.70;;;17.20;99.90;;;17.11;100.00;97697.44;5015812;28;20029;-45
2022/05/20 02:57:27;;;;;;;5.60;4.65;;;17.20;99.90;;;17.13;100.00;97689.34;5014075;28;20033;-47
2022/05/20 03:05:22;;;;;;;5.53;4.55;;;17.30;99.90;;;17.21;100.00;97699.53;5017525;28;20049;-46
2022/05/20 03:07:48;;;;;;;7.03;4.75;;;17.30;99.90;;;17.20;100.00;97700.50;5013944;28;20056;-48
2022/05/20 03:10:14;;;;;;;5.85;4.55;;;17.30;99.90;;;17.19;100.00;97694.31;5014662;28;20508;-46
2022/05/20 03:12:40;;;;;;;5.82;4.82;;;17.30;99.90;;;17.18;100.00;97692.59;5018859;28;20540;-46
2022/05/20 03:15:12;;;;;;;6.90;4.70;;;17.30;99.90;;;17.14;100.00;97686.59;5015770;28;20044;-48
2022/05/20 03:17:39;;;;;;;4.65;3.78;;;17.30;99.90;;;17.15;100.00;97693.63;4999421;28;20498;-48
2022/05/20 03:20:08;;;;;;;5.95;4.30;;;17.30;99.90;;;17.16;100.00;97695.34;5006866;28;20056;-47
2022/05/20 03:22:35;;;;;;;6.20;3.85;;;17.30;99.90;;;17.17;100.00;97686.41;5005364;28;20041;-49
2022/05/20 03:25:01;;;;;;;5.00;4.20;;;17.30;99.90;;;17.21;100.00;97692.44;5002408;28;20183;-48
2022/05/20 03:27:27;;;;;;;8.57;4.63;;;17.30;99.90;;;17.25;100.00;97693.97;5009674;28;20489;-48
2022/05/20 03:29:53;;;;;;;5.60;4.18;;;17.40;99.90;;;17.29;100.00;97698.16;5003037;28;20048;-45
2022/05/20 03:32:19;;;;;;;6.32;4.38;;;17.40;99.90;;;17.35;100.00;97700.47;5011045;28;20048;-47
2022/05/20 03:34:45;;;;;;;9.15;4.82;;;17.50;99.90;;;17.36;100.00;97695.97;5002707;28;20551;-45
2022/05/20 03:37:10;;;;;;;5.22;3.88;;;17.50;99.90;;;17.40;100.00;97688.66;5003439;28;20139;-45
2022/05/20 03:39:36;;;;;;;5.03;3.90;;;17.50;99.90;;;17.45;100.00;97699.91;5010678;28;20030;-45
2022/05/20 03:42:03;;;;;;;6.13;3.83;;;17.60;99.90;;;17.48;100.00;97694.38;5010049;28;20041;-46
2022/05/20 03:44:29;;;;;;;5.90;4.32;;;17.60;99.90;;;17.52;100.00;97695.94;5005331;28;20022;-45
2022/05/20 03:46:56;;;;;;;4.38;3.88;;;17.60;99.90;;;17.58;100.00;97700.88;5001246;28;20022;-44
2022/05/20 03:49:25;;;;;;;4.72;3.97;;;17.70;99.90;;;17.61;100.00;97698.03;5002691;28;20144;-48
2022/05/20 03:51:53;;;;;;;6.25;4.28;;;17.70;99.90;;;17.64;100.00;97697.84;5004624;28;20094;-47
2022/05/20 03:54:21;;;;;;;5.90;4.47;;;17.70;99.90;;;17.63;100.00;97688.13;5006263;28;20521;-44
2022/05/20 03:56:48;;;;;;;5.70;4.50;;;17.80;99.90;;;17.70;100.00;97691.28;5002628;28;20026;-45
2022/05/20 03:59:14;;;;;;;9.88;4.18;;;17.80;99.90;;;17.74;100.00;97693.66;5002833;28;20498;-48
2022/05/20 04:01:57;;;;;;;5.07;4.57;;;17.80;99.90;;;17.77;100.00;97700.63;5002564;28;20044;-45
2022/05/20 04:04:47;;;;;;;7.18;4.78;;;17.90;99.90;;;17.84;100.00;97701.13;4999535;28;20488;-47
2022/05/20 04:07:17;;;;;;;6.47;4.13;;;17.90;99.90;;;17.88;100.00;97698.19;5003775;28;20048;-46
2022/05/20 04:09:43;;;;;;;7.18;4.22;;;18.00;99.90;;;17.92;100.00;97697.03;5009078;28;20527;-45
2022/05/20 04:12:25;;;;;;;6.22;4.05;;;18.00;99.90;;;17.96;100.00;97700.34;5007315;28;20041;-42
2022/05/20 04:14:51;;;;;;;6.60;4.50;;;18.10;99.90;;;17.92;100.00;97697.03;5026668;28;20725;-45
2022/05/20 04:17:17;;;;;;;6.60;4.10;;;18.10;99.90;;;17.97;100.00;97695.91;5010625;28;20282;-44
2022/05/20 04:19:43;;;;;;;4.25;3.25;;;18.10;99.90;;;17.97;100.00;97701.25;5011445;28;20405;-42
2022/05/20 04:22:11;;;;;;;6.60;4.20;;;18.10;99.90;;;17.97;100.00;97696.75;5011847;28;20489;-42
2022/05/20 04:24:37;;;;;;;4.93;3.60;;;18.10;99.90;;;17.99;100.00;97697.50;5027983;28;20068;-42
2022/05/20 04:27:04;;;;;;;7.80;3.97;;;18.10;99.90;;;18.02;100.00;97697.31;5010666;28;20029;-42
2022/05/20 04:29:29;;;;;;;6.68;3.97;;;18.10;99.90;;;18.07;100.00;97691.69;5012163;28;20087;-46
2022/05/20 04:31:56;;;;;;;4.63;3.95;;;18.20;99.90;;;18.09;100.00;97692.47;5011776;28;20041;-44
2022/05/20 04:34:22;;;;;;;3.90;3.28;;;18.20;99.90;;;18.05;100.00;97678.47;5012144;28;20393;-43
2022/05/20 04:36:48;;;;;;;6.13;3.88;;;18.20;99.90;;;18.10;100.00;97691.50;5013624;28;20025;-43
2022/05/20 04:39:14;;;;;;;5.97;3.55;;;18.20;99.90;;;18.09;100.00;97687.97;5015063;28;20527;-44
2022/05/20 04:47:25;;;;;;;3.90;3.38;;;18.20;99.90;;;18.11;100.00;97688.75;5012473;28;20044;-45
2022/05/20 04:49:50;;;;;;;7.18;3.35;;;18.20;99.90;;;18.16;100.00;97690.25;5015359;28;20059;-44
2022/05/20 04:52:17;;;;;;;3.97;3.55;;;18.20;99.90;;;18.19;100.00;97698.91;5019119;28;20029;-44
2022/05/20 04:54:55;;;;;;;4.55;3.25;;;18.30;99.90;;;18.21;100.00;97682.81;5020204;28;20036;-46
2022/05/20 04:57:34;;;;;;;3.17;2.88;;;18.30;99.90;;;18.29;100.00;97688.53;5019377;28;20037;-47
2022/05/20 05:00:10;;;;;;;3.13;2.78;;;18.40;99.90;;;18.42;100.00;97693.94;5015870;28;20072;-46
2022/05/20 05:02:36;;;;;;;5.03;3.05;;;18.50;99.90;;;18.54;100.00;97697.63;5017669;28;20026;-47
2022/05/20 05:05:05;;;;;;;8.23;3.50;;;18.60;99.90;;;18.65;99.93;97692.47;5021813;28;20316;-47
2022/05/20 05:07:31;;;;;;;6.07;3.45;;;18.70;99.90;;;18.75;95.33;97684.69;5016189;28;20064;-44
2022/05/20 05:09:59;;;;;;;3.20;2.90;;;18.80;99.90;;;18.89;95.18;97696.22;5015421;28;20504;-46
2022/05/20 05:12:25;;;;;;;3.95;3.15;;;18.90;99.90;;;19.02;95.14;97682.03;5025539;23;20072;-45
2022/05/20 05:14:53;;;;;;;4.00;3.22;;;19.10;99.90;;;19.17;94.73;97699.72;5020125;28;20029;-45
2022/05/20 05:20:16;;;;;;;3.97;3.15;;;19.30;99.90;;;19.40;93.47;97703.53;5002643;28;20099;-46
2022/05/20 05:22:42;;;;;;;4.00;3.05;;;19.50;99.90;;;19.53;92.84;97695.53;5017503;28;20307;-46
2022/05/20 05:25:10;;;;;;;5.47;3.05;;;19.60;99.90;;;19.75;91.73;97702.09;5015969;28;20113;-44
2022/05/20 05:27:35;;;;;;;4.95;3.45;;;19.70;99.90;;;19.79;90.12;97696.44;5017671;28;20029;-46
2022/05/20 05:30:02;;;;;;;5.07;3.15;;;19.90;99.90;;;19.99;90.13;97708.41;5017691;28;20456;-48
2022/05/20 05:32:28;;;;;;;4.80;2.90;;;20.00;99.90;;;20.18;88.69;97707.09;5015638;28;20053;-46
2022/05/20 05:34:54;;;;;;;6.00;3.15;;;20.10;99.90;;;20.45;86.32;97712.31;5017906;28;20034;-47
2022/05/20 05:37:20;;;;;;;4.07;3.10;;;20.30;99.90;;;20.72;85.31;97706.78;5018459;28;20485;-48
2022/05/20 05:39:46;;;;;;;3.28;2.53;;;20.50;99.90;;;21.11;82.58;97707.47;5017311;28;20036;-47
2022/05/20 05:42:12;;;;;;;6.13;2.92;;;20.80;99.90;;;21.43;80.11;97711.41;5017060;28;20052;-49
2022/05/20 05:44:38;;;;;;;4.63;3.17;;;21.00;99.90;;;21.65;78.88;97710.63;5019705;28;20112;-48
2022/05/20 05:47:04;;;;;;;4.03;3.13;;;21.30;99.90;;;21.83;78.11;97709.19;5012765;28;20029;-49
2022/05/20 05:49:31;;;;;;;3.55;2.60;;;21.50;99.90;;;21.96;76.86;97709.09;5017450;28;20071;-46
2022/05/20 05:51:57;;;;;;;5.05;3.20;;;21.60;99.90;;;22.01;75.28;97709.59;5016610;28;21281;-48
2022/05/20 05:54:22;;;;;;;3.60;2.80;;;21.70;99.90;;;22.05;74.87;97711.03;5018498;28;20362;-48
2022/05/20 05:56:49;;;;;;;4.47;2.78;;;21.80;99.90;;;22.11;73.68;97715.09;5016044;28;20061;-48
2022/05/20 05:59:15;;;;;;;5.35;2.90;;;21.90;99.90;;;22.11;73.76;97710.56;5018875;28;20043;-48
2022/05/20 06:01:41;;;;;;;4.97;3.40;;;21.90;99.90;;;22.08;74.34;97710.81;5014666;28;20065;-49
2022/05/20 06:04:07;;;;;;;4.50;3.28;;;21.90;99.90;;;22.05;74.72;97704.81;5018804;28;20499;-46
2022/05/20 06:06:33;;;;;;;5.55;3.30;;;21.90;99.90;;;21.99;75.01;97706.16;5002804;28;20065;-48
2022/05/20 06:08:58;;;;;;;3.50;3.20;;;21.90;99.90;;;21.99;75.03;97703.47;5015380;28;20041;-47
2022/05/20 06:11:24;;;;;;;4.57;3.05;;;21.90;99.90;;;22.01;75.24;97701.53;5010203;28;20524;-49
2022/05/20 06:13:50;;;;;;;5.10;3.40;;;22.00;99.90;;;22.12;75.64;97701.53;5021268;28;20037;-47
2022/05/20 06:16:21;;;;;;;4.18;3.10;;;22.00;99.90;;;22.21;75.23;97691.03;5016117;28;20524;-49
2022/05/20 06:18:48;;;;;;;6.03;3.28;;;22.10;99.90;;;22.20;73.51;97700.94;5019063;28;20036;-47
2022/05/20 06:21:14;;;;;;;4.00;3.20;;;22.10;99.90;;;22.29;73.76;97700.22;5016369;28;20025;-48
2022/05/20 06:23:40;;;;;;;5.32;3.20;;;22.20;99.90;;;22.40;72.73;97702.06;5018388;28;20512;-50
2022/05/20 06:26:06;;;;;;;4.25;2.97;;;22.40;99.90;;;22.52;70.46;97692.13;5011108;28;20030;-48
2022/05/20 06:28:32;;;;;;;5.15;2.60;;;22.50;99.90;;;22.78;68.97;97705.31;5019476;28;20134;-48
2022/05/20 06:30:58;;;;;;;4.38;2.88;;;22.70;99.90;;;22.89;68.93;97694.50;5016820;28;20033;-47
2022/05/20 06:33:26;;;;;;;3.67;2.78;;;22.90;99.90;;;23.12;68.26;97697.16;5021705;28;20037;-48
2022/05/20 06:41:21;;;;;;;4.50;2.92;;;23.40;99.90;;;23.55;64.58;97704.31;5015506;28;20127;-48
2022/05/20 06:43:46;;;;;;;3.88;3.05;;;23.50;99.90;;;23.70;66.98;97688.66;5017483;28;20099;-46
2022/05/20 06:46:12;;;;;;;6.45;2.80;;;23.60;99.90;;;23.82;62.30;97701.09;5015883;28;20037;-50
2022/05/20 06:48:42;;;;;;;6.50;2.95;;;23.80;99.90;;;23.95;59.41;97699.03;5020122;28;20120;-47
2022/05/20 06:51:10;;;;;;;5.07;3.20;;;23.90;99.90;;;24.06;60.71;97690.03;5012579;28;20068;-47
2022/05/20 06:53:35;;;;;;;4.72;2.95;;;24.10;99.90;;;24.26;60.38;97692.81;5016418;28;20465;-49
2022/05/20 06:56:01;;;;;;;4.20;2.72;;;24.20;99.90;;;24.43;58.50;97696.72;5014079;28;20033;-47
2022/05/20 06:58:27;;;;;;;4.32;3.00;;;24.40;99.90;;;24.49;58.41;97688.91;5014350;28;20536;-46
2022/05/20 07:00:53;;;;;;;6.05;3.05;;;24.50;99.90;;;24.67;57.49;97697.22;5011828;28;20034;-48
2022/05/20 07:03:21;;;;;;;4.85;2.60;;;24.70;99.90;;;24.87;56.11;97703.56;5018517;28;20507;-48
2022/05/20 07:05:47;;;;;;;4.97;3.03;;;24.90;99.90;;;24.98;55.71;97694.47;5013862;28;20504;-46
2022/05/20 07:08:13;;;;;;;3.60;2.53;;;24.90;99.90;;;24.98;54.76;97701.69;5013244;28;20481;-44
2022/05/20 07:10:39;;;;;;;5.13;2.78;;;25.00;99.90;;;25.05;54.94;97706.41;5014672;28;20045;-48
2022/05/20 07:13:06;;;;;;;3.72;2.95;;;25.00;99.90;;;25.08;55.29;97699.88;5011645;28;20033;-48
2022/05/20 07:15:31;;;;;;;5.68;3.03;;;25.00;99.70;;;25.14;55.33;97692.06;5012530;28;20033;-46
2022/05/20 07:17:57;;;;;;;4.22;2.67;;;25.10;99.90;;;25.28;55.96;97703.47;5016083;28;20040;-48
2022/05/20 07:20:23;;;;;;;4.22;3.10;;;25.20;99.90;;;25.39;55.43;97702.47;5018191;28;20469;-45
2022/05/20 07:22:49;;;;;;;3.90;2.60;;;25.30;99.70;;;25.52;56.16;97698.47;5014286;28;21615;-44
2022/05/20 07:25:14;;;;;;;8.57;3.00;;;25.40;99.90;;;25.58;54.92;97697.06;5017779;28;20037;-46
2022/05/20 07:27:40;;;;;;;4.97;2.85;;;25.50;99.20;;;25.53;54.82;97677.72;5016043;28;20504;-46
2022/05/20 07:30:08;;;;;;;4.97;2.97;;;25.60;99.40;;;25.71;54.07;97697.59;5016031;28;20048;-44
2022/05/20 07:32:34;;;;;;;3.15;2.60;;;25.60;98.80;;;25.83;55.02;97700.16;5009720;28;20042;-45
2022/05/20 07:34:59;;;;;;;5.00;3.00;;;25.70;99.00;;;25.87;53.26;97688.03;5015584;28;20090;-45
2022/05/20 07:37:26;;;;;;;5.28;2.90;;;25.80;98.30;;;25.90;53.81;97677.78;5012434;28;20176;-47
2022/05/20 07:39:52;;;;;;;5.97;3.00;;;25.90;98.20;;;26.10;56.88;97680.47;5016611;28;20049;-44
2022/05/20 07:42:17;;;;;;;4.65;3.17;;;26.00;98.80;;;26.22;53.54;97683.81;5026421;23;20064;-49
2022/05/20 07:44:43;;;;;;;5.07;3.28;;;26.10;98.20;;;26.33;52.67;97675.53;5010068;28;20512;-49
2022/05/20 07:47:09;;;;;;;7.25;3.20;;;26.20;97.80;;;26.44;52.43;97685.31;5012243;28;20041;-49
2022/05/20 07:49:35;;;;;;;4.47;3.22;;;26.30;97.20;;;26.46;50.47;97688.72;5012004;28;20029;-51
2022/05/20 07:52:03;;;;;;;6.07;3.53;;;26.40;96.30;;;26.47;52.12;97688.56;5010021;28;20037;-50
2022/05/20 07:54:34;;;;;;;7.03;3.20;;;26.40;96.50;;;26.45;52.34;97670.78;4996259;28;20029;-49
2022/05/20 07:57:07;;;;;;;9.82;2.90;;;26.40;96.70;;;26.62;53.66;97691.66;5013311;28;20022;-49
2022/05/20 07:59:50;;;;;;;5.55;3.28;;;26.50;96.70;;;26.66;49.26;97700.31;5013506;28;20112;-47
2022/05/20 08:02:19;;;;;;;4.07;2.97;;;26.60;95.20;;;26.67;50.85;97689.34;5013288;28;20401;-50
2022/05/20 08:04:53;;;;;;;4.05;3.25;;;26.60;95.60;;;26.72;50.15;97690.75;4997970;28;20045;-47
2022/05/20 08:07:32;;;;;;;7.70;3.25;;;26.60;95.40;;;26.70;49.50;97693.59;4992417;28;20026;-49
2022/05/20 08:10:07;;;;;;;4.45;2.90;;;26.60;94.70;;;26.82;51.13;97681.56;5008963;28;20125;-48
2022/05/20 08:12:32;;;;;;;4.60;2.63;;;26.70;95.20;;;26.94;50.17;97693.03;5012438;28;20030;-50
2022/05/20 08:14:58;;;;;;;5.45;3.03;;;26.90;95.40;;;27.07;49.93;97683.69;5010193;28;20029;-47
2022/05/20 08:17:25;;;;;;;4.80;3.08;;;26.90;95.30;;;27.16;48.19;97675.47;5013112;28;20068;-48
2022/05/20 08:19:53;;;;;;;6.68;3.30;;;27.00;93.90;;;27.17;49.60;97669.06;5011388;28;20037;-49
2022/05/20 08:22:24;;;;;;;5.70;3.30;;;27.10;93.70;;;27.21;48.10;97656.06;5011196;28;20572;-51
2022/05/20 08:24:57;;;;;;;3.83;3.13;;;27.10;93.40;;;27.28;47.77;97661.72;5012768;28;20404;-50
2022/05/20 08:27:26;;;;;;;4.18;3.20;;;27.20;93.10;;;27.33;47.80;97663.00;5013464;28;20048;-47
2022/05/20 08:29:52;;;;;;;6.50;3.60;;;27.20;93.30;;;27.22;46.31;97661.34;5014628;28;20561;-48
2022/05/20 08:32:19;;;;;;;7.72;3.83;;;27.30;91.80;;;27.28;47.94;97653.59;5012858;28;20540;-48
2022/05/20 08:34:46;;;;;;;6.18;3.67;;;27.20;92.30;;;27.35;47.98;97650.13;5014150;28;20030;-46
2022/05/20 08:37:14;;;;;;;6.07;3.35;;;27.20;92.90;;;27.40;47.99;97653.22;5015424;28;20600;-48
2022/05/20 08:39:41;;;;;;;4.95;3.42;;;27.30;92.60;;;27.43;47.70;97655.59;4997365;28;20025;-47
2022/05/20 08:42:18;;;;;;;6.78;3.60;;;27.30;92.80;;;27.42;46.38;97644.91;5013471;28;20134;-49
2022/05/20 08:44:44;;;;;;;4.90;3.25;;;27.40;91.70;;;27.41;46.81;97651.38;5016662;28;20031;-46
2022/05/20 08:47:26;;;;;;;6.95;3.10;;;27.40;91.60;;;27.54;46.62;97649.09;5015846;28;20060;-46
2022/05/20 08:49:59;;;;;;;6.43;3.50;;;27.40;91.70;;;27.66;45.97;97636.16;4999517;28;20473;-50
2022/05/20 08:52:27;;;;;;;4.90;3.50;;;27.50;91.20;;;27.76;45.14;97644.16;5016292;28;20041;-49
2022/05/20 08:54:53;;;;;;;6.25;3.13;;;27.70;90.80;;;27.78;45.47;97642.13;5018372;28;20036;-47
2022/05/20 08:57:23;;;;;;;5.55;3.55;;;27.70;90.40;;;27.84;45.38;97636.09;5019565;28;20497;-50
2022/05/20 08:59:50;;;;;;;7.60;3.88;;;27.70;90.70;;;27.91;45.63;97634.47;5020467;28;20037;-49
2022/05/20 09:02:16;;;;;;;4.90;3.42;;;27.80;90.20;;;27.94;45.20;97625.16;5018270;28;20033;-47
2022/05/20 09:04:42;;;;;;;5.40;3.72;;;27.80;90.10;;;27.91;43.19;97623.63;5014909;28;20256;-50
2022/05/20 09:07:12;;;;;;;5.38;3.42;;;27.90;86.90;;;27.95;43.13;97619.59;5015914;28;20037;-49
2022/05/20 09:09:57;;;;;;;5.38;3.65;;;27.90;87.60;;;27.97;40.78;97612.13;5013680;28;20034;-48
2022/05/20 09:12:37;;;;;;;5.40;3.65;;;27.90;84.00;;;28.09;44.10;97625.44;5018393;28;20034;-48
2022/05/20 09:18:19;;;;;;;6.25;3.63;;;28.10;81.80;;;28.09;40.51;97622.72;5017475;28;20052;-50
2022/05/20 09:20:49;;;;;;;5.22;3.58;;;28.10;81.20;;;28.14;42.13;97617.66;5015688;28;20026;-47
2022/05/20 09:23:20;;;;;;;7.10;3.38;;;28.10;82.20;;;28.14;41.59;97614.94;5012551;28;20068;-50
2022/05/20 09:26:03;;;;;;;3.60;3.17;;;28.10;81.90;;;28.21;41.11;97623.25;5017855;28;20037;-46
2022/05/20 09:28:44;;;;;;;7.30;3.70;;;28.10;81.40;;;28.30;41.24;97611.44;5016050;28;20034;-48
2022/05/20 09:31:22;;;;;;;4.47;3.28;;;28.20;80.70;;;28.40;41.58;97595.03;5013895;28;20044;-48
2022/05/20 09:34:25;;;;;;;8.00;3.50;;;28.30;81.30;;;28.46;40.45;97597.94;5011640;28;20029;-47
2022/05/20 09:37:02;;;;;;;7.95;3.35;;;28.40;80.10;;;28.32;41.20;97587.72;5012913;28;20037;-47
2022/05/20 09:39:41;;;;;;;8.88;3.38;;;28.30;79.50;;;28.27;41.09;97590.94;5012906;28;20478;-46
2022/05/20 09:42:24;;;;;;;6.28;3.72;;;28.20;77.80;;;28.29;40.18;97594.31;5013041;28;20656;-46
2022/05/20 09:45:00;;;;;;;6.78;3.95;;;28.20;77.40;;;28.24;40.22;97583.09;5011843;28;20071;-49
2022/05/20 09:47:48;;;;;;;5.07;3.85;;;28.20;78.10;;;28.17;40.10;97584.78;5013386;28;20033;-48
2022/05/20 09:50:34;;;;;;;9.65;4.03;;;28.10;77.20;;;28.23;41.30;97583.28;5012145;28;20036;-46
2022/05/20 09:53:18;;;;;;;4.88;3.17;;;28.10;79.50;;;28.29;40.61;97578.03;4997820;28;20038;-50
2022/05/20 09:55:46;;;;;;;9.43;4.05;;;28.20;78.50;;;28.40;41.06;97573.34;5016379;28;20051;-46
2022/05/20 09:58:27;;;;;;;9.43;4.25;;;28.30;78.90;;;28.46;40.21;97587.09;5014780;28;20034;-46
2022/05/20 10:01:01;;;;;;;8.07;3.92;;;28.40;77.40;;;28.46;41.05;97588.94;5012979;28;20115;-47
2022/05/20 10:03:48;;;;;;;5.68;3.83;;;28.40;78.20;;;28.54;40.80;97581.72;5012543;28;20045;-50
2022/05/20 10:06:40;;;;;;;6.25;4.00;;;28.40;77.80;;;28.67;42.66;97574.97;5013644;28;20034;-48
2022/05/20 10:09:15;;;;;;;5.80;3.60;;;28.50;80.20;;;28.73;40.33;97560.72;4996478;28;20555;-46
2022/05/20 10:11:54;;;;;;;5.35;3.63;;;28.60;77.80;;;28.69;40.35;97545.78;5013633;28;20292;-50
2022/05/20 10:14:37;;;;;;;6.32;3.92;;;28.70;77.00;;;28.63;40.34;97539.16;4997003;28;20571;-50
2022/05/20 10:17:20;;;;;;;5.85;3.50;;;28.60;77.50;;;28.69;40.52;97540.34;5009584;28;20038;-50
2022/05/20 10:20:26;;;;;;;6.38;3.58;;;28.60;76.70;;;28.78;41.09;97539.34;5004303;28;20658;-51
2022/05/20 10:23:33;;;;;;;8.27;3.95;;;28.70;78.10;;;28.72;41.44;97532.72;5014146;28;20472;-47
2022/05/20 10:26:11;;;;;;;9.75;4.03;;;28.70;77.20;;;28.83;44.61;97519.84;4997870;28;20037;-47
2022/05/20 10:34:34;;;;;;;6.18;3.65;;;28.80;76.10;;;28.92;39.29;97516.13;5012044;28;20512;-48
2022/05/20 10:37:43;;;;;;;5.50;3.55;;;28.90;75.50;;;29.05;38.32;97527.31;4992111;28;20056;-49
2022/05/20 10:40:26;;;;;;;13.75;3.65;;;28.90;73.80;;;29.27;36.89;97522.22;5012936;28;20065;-50
2022/05/20 10:43:22;;;;;;;5.30;3.10;;;29.10;71.00;;;29.47;36.78;97528.16;4994502;28;20072;-47
2022/05/20 10:49:37;;;;;;;7.93;3.25;;;29.50;66.90;;;29.60;36.17;97528.44;5010655;28;20126;-46
2022/05/20 10:52:21;;;;;;;9.25;3.80;;;29.50;68.60;;;29.67;35.18;97507.69;4973834;28;20409;-49
2022/05/20 10:55:11;;;;;;;6.72;3.40;;;29.50;66.10;;;29.75;34.71;97486.97;5013274;28;20449;-49
2022/05/20 10:58:01;;;;;;;10.82;3.28;;;29.60;66.00;;;29.81;35.60;97492.56;5013196;28;20481;-47
2022/05/20 11:00:47;;;;;;;8.02;3.58;;;29.70;66.80;;;29.92;36.69;97498.66;5011869;28;20064;-48
2022/05/20 11:03:58;;;;;;;5.10;3.42;;;29.80;65.70;;;30.04;37.21;97492.63;5003859;28;20140;-49